createdAt,value
2018-01-12T00:02:08.959Z,15.60
2018-01-12T00:04:37.307Z,15.47
2018-01-12T00:07:05.207Z,15.07
2018-01-12T00:09:33.480Z,15.93
2018-01-12T00:12:01.215Z,15.27
2018-01-12T00:14:28.742Z,15.87
2018-01-12T00:16:56.639Z,14.80
2018-01-12T00:19:24.147Z,16.70
2018-01-12T00:21:52.271Z,17.47
2018-01-12T00:24:20.628Z,17.13
2018-01-12T00:26:48.734Z,17.13
2018-01-12T00:29:16.499Z,17.63
2018-01-12T00:31:44.033Z,16.10
2018-01-12T00:34:11.511Z,16.87
2018-01-12T00:36:39.160Z,19.03
2018-01-12T00:39:06.663Z,20.53
2018-01-12T00:41:34.352Z,17.30
2018-01-12T00:44:02.563Z,16.37
2018-01-12T00:46:30.237Z,17.20
2018-01-12T00:48:57.693Z,18.03
2018-01-12T00:51:25.202Z,16.53
2018-01-12T00:53:52.708Z,18.37
2018-01-12T00:56:20.614Z,16.40
2018-01-12T00:58:48.115Z,18.30
2018-01-12T01:01:17.424Z,17.70
2018-01-12T01:03:44.915Z,15.77
2018-01-12T01:06:12.633Z,16.57
2018-01-12T01:08:40.148Z,17.60
2018-01-12T01:11:07.849Z,16.73
2018-01-12T01:13:35.551Z,17.00
2018-01-12T01:16:03.066Z,16.70
2018-01-12T01:18:30.832Z,16.37
2018-01-12T01:20:58.610Z,15.70
2018-01-12T01:23:26.358Z,16.47
2018-01-12T01:25:53.862Z,14.80
2018-01-12T01:28:21.372Z,14.83
2018-01-12T01:30:49.215Z,16.03
2018-01-12T01:33:16.800Z,15.70
2018-01-12T01:35:44.310Z,14.40
2018-01-12T01:38:11.820Z,14.17
2018-01-12T01:40:39.406Z,14.53
2018-01-12T01:43:06.919Z,14.40
2018-01-12T01:45:34.909Z,15.23
2018-01-12T01:48:02.412Z,14.23
2018-01-12T01:50:29.927Z,13.30
2018-01-12T01:52:59.211Z,15.30
2018-01-12T01:55:26.839Z,14.57
2018-01-12T01:57:54.347Z,14.03
2018-01-12T02:00:22.818Z,13.83
2018-01-12T02:02:50.675Z,14.60
2018-01-12T02:05:18.338Z,13.70
2018-01-12T02:07:46.300Z,15.03
2018-01-12T02:10:13.837Z,14.67
2018-01-12T02:12:42.425Z,14.07
2018-01-12T02:15:09.914Z,14.30
2018-01-12T02:17:37.511Z,14.77
2018-01-12T02:20:05.204Z,15.33
2018-01-12T02:22:32.711Z,14.63
2018-01-12T02:25:00.213Z,12.30
2018-01-12T02:27:27.728Z,11.53
2018-01-12T02:29:55.359Z,10.97
2018-01-12T02:32:23.440Z,10.50
2018-01-12T02:34:50.962Z,9.93
2018-01-12T02:37:18.450Z,10.57
2018-01-12T02:39:46.111Z,10.00
2018-01-12T02:42:13.638Z,10.07
2018-01-12T02:44:41.131Z,10.27
2018-01-12T02:47:08.649Z,11.50
2018-01-12T02:49:36.542Z,12.77
2018-01-12T02:52:04.087Z,12.20
2018-01-12T02:54:31.743Z,10.57
2018-01-12T02:57:00.422Z,11.33
2018-01-12T02:59:28.527Z,13.10
2018-01-12T03:01:56.919Z,13.00
2018-01-12T03:04:26.247Z,11.70
2018-01-12T03:06:53.968Z,12.63
2018-01-12T03:09:21.589Z,12.63
2018-01-12T03:11:49.104Z,12.87
2018-01-12T03:14:17.002Z,12.70
2018-01-12T03:16:45.316Z,13.60
2018-01-12T03:19:13.150Z,13.70
2018-01-12T03:21:40.660Z,15.27
2018-01-12T03:24:08.166Z,12.87
2018-01-12T03:26:35.667Z,13.93
2018-01-12T03:29:03.240Z,15.23
2018-01-12T03:31:30.730Z,16.03
2018-01-12T03:33:58.438Z,16.87
2018-01-12T03:36:25.974Z,17.70
2018-01-12T03:38:53.476Z,17.70
2018-01-12T03:41:21.119Z,18.27
2018-01-12T03:43:48.832Z,18.47
2018-01-12T03:46:16.963Z,20.60
2018-01-12T03:48:44.474Z,20.27
2018-01-12T03:51:12.374Z,20.70
2018-01-12T03:53:39.883Z,20.17
2018-01-12T03:56:07.699Z,21.90
2018-01-12T03:58:35.463Z,22.00
2018-01-12T04:01:03.537Z,23.87
2018-01-12T04:03:31.072Z,25.23
2018-01-12T04:05:58.751Z,22.40
2018-01-12T04:08:26.828Z,24.73
2018-01-12T04:10:54.757Z,25.30
2018-01-12T04:13:22.328Z,24.77
2018-01-12T04:15:50.395Z,25.90
2018-01-12T04:18:17.892Z,27.27
2018-01-12T04:20:45.419Z,27.57
2018-01-12T04:23:13.099Z,27.20
2018-01-12T04:25:41.013Z,27.50
2018-01-12T04:28:09.544Z,30.47
2018-01-12T04:30:37.051Z,26.73
2018-01-12T04:33:04.955Z,28.90
2018-01-12T04:35:32.532Z,27.57
2018-01-12T04:38:00.299Z,30.70
2018-01-12T04:40:28.059Z,28.87
2018-01-12T04:42:55.560Z,30.40
2018-01-12T04:45:23.291Z,28.60
2018-01-12T04:47:50.791Z,30.23
2018-01-12T04:50:18.476Z,28.80
2018-01-12T04:52:45.975Z,31.17
2018-01-12T04:55:13.595Z,29.80
2018-01-12T04:57:41.152Z,30.37
2018-01-12T05:00:08.682Z,30.33
2018-01-12T05:02:36.578Z,31.07
2018-01-12T05:05:04.174Z,34.27
2018-01-12T05:07:31.696Z,32.37
2018-01-12T05:09:59.200Z,31.63
2018-01-12T05:12:27.601Z,34.20
2018-01-12T05:14:55.943Z,34.47
2018-01-12T05:17:23.569Z,34.30
2018-01-12T05:19:51.072Z,33.30
2018-01-12T05:22:18.818Z,31.90
2018-01-12T05:24:46.319Z,34.73
2018-01-12T05:27:14.040Z,34.10
2018-01-12T05:29:41.540Z,35.30
2018-01-12T05:32:09.556Z,33.27
2018-01-12T05:34:37.171Z,33.07
2018-01-12T05:37:04.814Z,35.57
2018-01-12T05:39:32.830Z,32.70
2018-01-12T05:42:00.343Z,30.70
2018-01-12T05:44:28.111Z,32.60
2018-01-12T05:46:56.027Z,34.53
2018-01-12T05:49:23.603Z,32.93
2018-01-12T05:51:51.363Z,34.30
2018-01-12T05:54:18.863Z,32.43
2018-01-12T05:56:46.761Z,32.77
2018-01-12T05:59:14.274Z,31.07
2018-01-12T06:01:53.562Z,33.00
2018-01-12T06:04:33.423Z,33.30
2018-01-12T06:07:00.958Z,31.77
2018-01-12T06:09:28.871Z,34.43
2018-01-12T06:11:56.830Z,33.77
2018-01-12T06:14:24.883Z,32.40
2018-01-12T06:16:52.628Z,32.23
2018-01-12T06:19:20.411Z,30.20
2018-01-12T06:21:48.209Z,33.30
2018-01-12T06:24:15.728Z,33.40
2018-01-12T06:26:43.402Z,29.73
2018-01-12T06:29:11.160Z,29.23
2018-01-12T06:31:38.663Z,32.97
2018-01-12T06:34:06.388Z,29.13
2018-01-12T06:36:34.283Z,29.00
2018-01-12T06:39:02.142Z,29.33
2018-01-12T06:41:29.651Z,31.60
2018-01-12T06:43:57.162Z,32.57
2018-01-12T06:46:24.672Z,29.57
2018-01-12T06:48:53.231Z,29.90
2018-01-12T06:51:20.843Z,30.30
2018-01-12T06:53:48.368Z,29.43
2018-01-12T06:56:15.882Z,31.57
2018-01-12T06:58:44.140Z,29.50
2018-01-12T07:01:11.651Z,30.00
2018-01-12T07:03:40.233Z,27.90
2018-01-12T07:06:07.929Z,32.00
2018-01-12T07:08:35.695Z,31.73
2018-01-12T07:11:03.224Z,30.43
2018-01-12T07:13:30.908Z,31.80
2018-01-12T07:15:58.672Z,32.27
2018-01-12T07:18:26.171Z,32.80
2018-01-12T07:21:05.871Z,31.77
2018-01-12T07:23:53.235Z,33.53
2018-01-12T07:26:20.742Z,31.93
2018-01-12T07:28:48.247Z,32.87
2018-01-12T07:31:16.280Z,32.47
2018-01-12T07:33:44.591Z,32.30
2018-01-12T07:36:12.092Z,35.23
2018-01-12T07:38:39.600Z,32.73
2018-01-12T07:41:07.333Z,33.83
2018-01-12T07:43:35.398Z,32.80
2018-01-12T07:46:03.307Z,34.00
2018-01-12T07:48:31.579Z,31.43
2018-01-12T07:50:59.615Z,32.47
2018-01-12T07:53:27.992Z,33.43
2018-01-12T07:55:55.629Z,36.30
2018-01-12T07:58:23.122Z,38.37
2018-01-12T08:00:56.255Z,32.70
2018-01-12T08:03:23.935Z,33.77
2018-01-12T08:05:52.014Z,32.40
2018-01-12T08:08:20.099Z,34.63
2018-01-12T08:10:47.606Z,34.47
2018-01-12T08:13:15.939Z,34.00
2018-01-12T08:15:43.449Z,34.37
2018-01-12T08:18:11.123Z,35.43
2018-01-12T08:20:38.929Z,33.67
2018-01-12T08:23:06.415Z,33.37
2018-01-12T08:25:34.142Z,36.73
2018-01-12T08:28:02.366Z,39.20
2018-01-12T08:30:30.893Z,34.83
2018-01-12T08:32:58.398Z,39.17
2018-01-12T08:35:26.405Z,36.93
2018-01-12T08:37:54.019Z,37.20
2018-01-12T08:40:22.051Z,34.60
2018-01-12T08:42:50.386Z,36.43
2018-01-12T08:45:17.892Z,36.63
2018-01-12T08:47:45.403Z,35.17
2018-01-12T08:50:13.683Z,35.23
2018-01-12T08:52:41.427Z,37.27
2018-01-12T08:55:08.929Z,35.57
2018-01-12T08:57:36.429Z,37.47
2018-01-12T09:00:03.939Z,37.30
2018-01-12T09:02:31.519Z,38.43
2018-01-12T09:05:00.517Z,36.50
2018-01-12T09:07:28.046Z,35.90
2018-01-12T09:09:55.562Z,34.33
2018-01-12T09:12:23.835Z,34.80
2018-01-12T09:14:52.968Z,34.73
2018-01-12T09:17:32.391Z,36.83
2018-01-12T09:20:11.746Z,34.27
2018-01-12T09:22:47.740Z,36.03
2018-01-12T09:25:26.527Z,37.17
2018-01-12T09:27:54.310Z,36.20
2018-01-12T09:30:22.692Z,35.07
2018-01-12T09:32:50.202Z,36.47
2018-01-12T09:35:17.915Z,33.80
2018-01-12T09:37:45.424Z,35.90
2018-01-12T09:40:24.425Z,37.07
2018-01-12T09:42:51.954Z,35.50
2018-01-12T09:45:19.720Z,37.40
2018-01-12T09:47:57.023Z,35.50
2018-01-12T09:50:24.779Z,35.57
2018-01-12T09:52:52.527Z,37.50
2018-01-12T09:55:20.296Z,34.80
2018-01-12T09:57:48.482Z,34.87
2018-01-12T10:00:27.681Z,36.10
2018-01-12T10:02:55.185Z,35.93
2018-01-12T10:05:22.720Z,39.10
2018-01-12T10:08:11.881Z,33.47
2018-01-12T10:10:39.411Z,34.60
2018-01-12T10:13:07.008Z,37.63
2018-01-12T10:15:34.643Z,34.83
2018-01-12T10:18:17.171Z,38.93
2018-01-12T10:20:44.930Z,32.63
2018-01-12T10:23:12.694Z,33.37
2018-01-12T10:25:40.207Z,39.27
2018-01-12T10:28:07.727Z,35.83
2018-01-12T10:33:59.740Z,35.37
2018-01-12T10:37:01.675Z,29.40
2018-01-12T10:39:29.950Z,35.97
2018-01-12T10:42:05.154Z,35.80
2018-01-12T10:44:32.782Z,33.70
2018-01-12T10:47:15.894Z,35.70
2018-01-12T10:49:55.974Z,33.60
2018-01-12T10:52:35.426Z,34.10
2018-01-12T10:55:03.277Z,35.60
2018-01-12T10:57:30.951Z,34.80
2018-01-12T10:59:58.451Z,32.10
2018-01-12T11:02:26.161Z,35.27
2018-01-12T11:04:54.444Z,34.30
2018-01-12T11:07:22.339Z,32.83
2018-01-12T11:09:50.073Z,33.77
2018-01-12T11:12:17.576Z,33.90
2018-01-12T11:14:45.315Z,35.60
2018-01-12T11:17:13.219Z,34.13
2018-01-12T11:19:41.694Z,33.90
2018-01-12T11:22:09.511Z,35.77
2018-01-12T11:24:37.263Z,34.37
2018-01-12T11:27:05.279Z,34.50
2018-01-12T11:29:32.797Z,33.90
2018-01-12T11:32:00.351Z,33.60
2018-01-12T11:34:29.018Z,36.10
2018-01-12T11:36:56.526Z,33.63
2018-01-12T11:39:24.163Z,35.53
2018-01-12T11:41:52.036Z,36.83
2018-01-12T11:44:19.650Z,36.60
2018-01-12T11:46:47.150Z,36.10
2018-01-12T11:49:15.070Z,35.17
2018-01-12T11:51:42.568Z,35.77
2018-01-12T11:54:11.038Z,35.50
2018-01-12T11:56:38.538Z,33.80
2018-01-12T11:59:06.079Z,32.40
2018-01-12T12:01:33.691Z,32.33
2018-01-12T12:04:01.191Z,35.67
2018-01-12T12:06:28.946Z,34.10
2018-01-12T12:08:56.458Z,33.20
2018-01-12T12:11:23.975Z,35.63
2018-01-12T12:13:51.489Z,34.83
2018-01-12T12:16:18.979Z,33.67
2018-01-12T12:18:47.423Z,31.20
2018-01-12T12:21:15.646Z,30.60
2018-01-12T12:23:43.292Z,30.33
2018-01-12T12:26:10.796Z,31.90
2018-01-12T12:28:38.299Z,32.30
2018-01-12T12:31:05.815Z,31.07
2018-01-12T12:33:34.151Z,28.93
2018-01-12T12:36:01.800Z,30.90
2018-01-12T12:38:29.303Z,29.70
2018-01-12T12:40:56.811Z,30.47
2018-01-12T12:43:24.444Z,28.53
2018-01-12T12:45:51.950Z,30.33
2018-01-12T12:48:19.691Z,32.57
2018-01-12T12:50:47.448Z,28.87
2018-01-12T12:53:15.459Z,29.57
2018-01-12T12:55:43.734Z,31.10
2018-01-12T12:58:12.281Z,27.63
2018-01-12T13:00:39.787Z,29.63
2018-01-12T13:03:07.496Z,29.90
2018-01-12T13:05:35.391Z,30.40
2018-01-12T13:08:02.903Z,28.70
2018-01-12T13:10:30.483Z,28.57
2018-01-12T13:12:57.979Z,30.73
2018-01-12T13:15:25.604Z,30.63
2018-01-12T13:17:53.163Z,27.80
2018-01-12T13:20:20.620Z,28.03
2018-01-12T13:22:48.378Z,27.87
2018-01-12T13:25:16.138Z,26.53
2018-01-12T13:27:43.675Z,29.57
2018-01-12T13:30:11.183Z,25.07
2018-01-12T13:32:38.678Z,28.27
2018-01-12T13:35:06.251Z,27.47
2018-01-12T13:37:33.781Z,27.37
2018-01-12T13:40:01.467Z,29.20
2018-01-12T13:42:29.169Z,26.77
2018-01-12T13:44:56.731Z,26.73
2018-01-12T13:47:25.746Z,26.73
2018-01-12T13:49:53.250Z,25.67
2018-01-12T13:52:20.957Z,26.97
2018-01-12T13:54:48.705Z,27.03
2018-01-12T13:57:16.227Z,26.70
2018-01-12T13:59:43.923Z,23.67
2018-01-12T14:02:11.675Z,26.50
2018-01-12T14:04:39.446Z,26.60
2018-01-12T14:07:06.955Z,25.37
2018-01-12T14:09:34.471Z,25.87
2018-01-12T14:12:01.976Z,26.63
2018-01-12T14:14:29.490Z,25.53
2018-01-12T14:16:57.004Z,23.80
2018-01-12T14:19:24.519Z,26.73
2018-01-12T14:21:52.003Z,25.83
2018-01-12T14:24:19.563Z,26.60
2018-01-12T14:26:47.182Z,26.50
2018-01-12T14:29:14.933Z,26.43
2018-01-12T14:31:42.433Z,25.13
2018-01-12T14:34:10.144Z,23.57
2018-01-12T14:36:37.908Z,23.70
2018-01-12T14:39:05.411Z,23.57
2018-01-12T14:41:33.137Z,24.33
2018-01-12T14:44:01.511Z,24.70
2018-01-12T14:46:29.003Z,23.20
2018-01-12T14:48:56.638Z,23.37
2018-01-12T14:51:24.910Z,24.30
2018-01-12T14:53:52.528Z,24.27
2018-01-12T14:56:20.332Z,24.47
2018-01-12T14:58:48.087Z,22.63
2018-01-12T15:01:15.850Z,22.90
2018-01-12T15:03:43.614Z,25.63
2018-01-12T15:06:11.381Z,22.13
2018-01-12T15:08:38.875Z,25.40
2018-01-12T15:11:06.383Z,23.90
2018-01-12T15:13:33.884Z,23.03
2018-01-12T15:16:02.444Z,22.33
2018-01-12T15:18:30.192Z,22.83
2018-01-12T15:20:57.963Z,22.97
2018-01-12T15:23:25.495Z,23.03
2018-01-12T15:25:52.967Z,20.90
2018-01-12T15:28:20.511Z,21.23
2018-01-12T15:30:48.087Z,22.20
2018-01-12T15:33:15.638Z,21.97
2018-01-12T15:35:43.315Z,25.20
2018-01-12T15:38:11.079Z,22.10
2018-01-12T15:40:38.583Z,20.80
2018-01-12T15:43:06.303Z,21.80
2018-01-12T15:45:33.794Z,23.33
2018-01-12T15:48:01.526Z,21.10
2018-01-12T15:50:30.074Z,20.80
2018-01-12T15:52:57.655Z,20.30
2018-01-12T15:55:25.173Z,20.87
2018-01-12T15:57:52.683Z,21.00
2018-01-12T16:00:20.179Z,21.57
2018-01-12T16:02:48.448Z,19.70
2018-01-12T16:05:15.951Z,19.50
2018-01-12T16:07:43.630Z,20.03
2018-01-12T16:10:11.127Z,19.57
2018-01-12T16:12:38.638Z,21.83
2018-01-12T16:15:06.300Z,22.17
2018-01-12T16:17:33.799Z,20.07
2018-01-12T16:20:02.123Z,20.63
2018-01-12T16:22:29.735Z,21.00
2018-01-12T16:24:58.284Z,19.47
2018-01-12T16:27:26.658Z,19.10
2018-01-12T16:29:54.398Z,19.17
2018-01-12T16:32:21.895Z,20.27
2018-01-12T16:34:49.412Z,16.97
2018-01-12T16:37:17.051Z,18.73
2018-01-12T16:39:45.171Z,18.40
2018-01-12T16:42:12.672Z,18.53
2018-01-12T16:44:40.347Z,18.30
2018-01-12T16:47:07.859Z,20.27
2018-01-12T16:49:35.589Z,19.40
2018-01-12T16:52:03.089Z,20.10
2018-01-12T16:54:30.826Z,20.47
2018-01-12T16:56:58.327Z,19.57
2018-01-12T16:59:26.063Z,20.07
2018-01-12T17:01:53.566Z,16.43
2018-01-12T17:04:21.079Z,19.37
2018-01-12T17:06:48.739Z,17.47
2018-01-12T17:09:17.759Z,18.47
2018-01-12T17:11:45.484Z,18.97
2018-01-12T17:14:13.254Z,18.93
2018-01-12T17:16:40.782Z,17.03
2018-01-12T17:19:08.279Z,17.27
2018-01-12T17:21:35.945Z,18.40
2018-01-12T17:24:03.456Z,18.10
2018-01-12T17:26:31.120Z,18.63
2018-01-12T17:28:59.010Z,18.30
2018-01-12T17:31:26.672Z,17.83
2018-01-12T17:33:54.180Z,18.33
2018-01-12T17:36:21.887Z,18.40
2018-01-12T17:38:49.395Z,19.00
2018-01-12T17:41:17.084Z,18.17
2018-01-12T17:43:44.871Z,19.63
2018-01-12T17:46:12.373Z,18.97
2018-01-12T17:48:40.091Z,18.50
2018-01-12T17:51:07.855Z,19.80
2018-01-12T17:53:35.623Z,19.90
2018-01-12T17:56:03.687Z,19.07
2018-01-12T17:58:31.459Z,18.93
2018-01-12T18:00:59.808Z,21.40
2018-01-12T18:03:27.317Z,20.60
2018-01-12T18:05:55.633Z,20.43
2018-01-12T18:08:23.695Z,20.30
2018-01-12T18:10:51.206Z,21.00
2018-01-12T18:13:19.058Z,20.13
2018-01-12T18:15:46.706Z,20.67
2018-01-12T18:18:14.661Z,20.53
2018-01-12T18:20:42.159Z,20.93
2018-01-12T18:23:09.677Z,19.60
2018-01-12T18:25:37.184Z,21.07
2018-01-12T18:28:05.447Z,21.03
2018-01-12T18:30:32.991Z,21.57
2018-01-12T18:33:00.487Z,22.77
2018-01-12T18:35:27.991Z,21.63
2018-01-12T18:37:55.895Z,21.07
2018-01-12T18:40:23.812Z,21.57
2018-01-12T18:42:51.307Z,21.50
2018-01-12T18:45:19.022Z,22.37
2018-01-12T18:47:46.527Z,22.03
2018-01-12T18:50:14.058Z,22.63
2018-01-12T18:52:41.547Z,21.20
2018-01-12T18:55:09.069Z,24.30
2018-01-12T18:57:36.859Z,22.50
2018-01-12T19:00:04.360Z,21.63
2018-01-12T19:02:32.079Z,23.00
2018-01-12T19:04:59.687Z,22.13
2018-01-12T19:07:28.227Z,23.47
2018-01-12T19:09:55.983Z,23.43
2018-01-12T19:12:23.946Z,22.80
2018-01-12T19:14:52.151Z,24.77
2018-01-12T19:17:19.669Z,23.20
2018-01-12T19:19:47.155Z,23.67
2018-01-12T19:22:14.678Z,22.37
2018-01-12T19:24:42.224Z,23.90
2018-01-12T19:27:09.731Z,25.20
2018-01-12T19:29:37.250Z,22.60
2018-01-12T19:32:04.912Z,23.83
2018-01-12T19:34:32.402Z,21.10
2018-01-12T19:36:59.928Z,24.07
2018-01-12T19:39:27.571Z,23.93
2018-01-12T19:41:55.092Z,27.13
2018-01-12T19:44:22.578Z,25.63
2018-01-12T19:46:50.087Z,24.87
2018-01-12T19:49:17.979Z,22.80
2018-01-12T19:51:45.612Z,25.57
2018-01-12T19:54:13.268Z,23.93
2018-01-12T19:56:40.763Z,25.20
2018-01-12T19:59:08.271Z,28.43
2018-01-12T20:01:36.435Z,26.27
2018-01-12T20:04:03.947Z,24.03
2018-01-12T20:06:31.467Z,25.83
2018-01-12T20:08:59.235Z,24.30
2018-01-12T20:11:27.003Z,25.23
2018-01-12T20:13:55.224Z,24.63
2018-01-12T20:16:23.756Z,23.03
2018-01-12T20:18:51.519Z,31.83
2018-01-12T20:21:19.284Z,24.90
2018-01-12T20:23:47.558Z,24.40
2018-01-12T20:26:15.127Z,26.83
2018-01-12T20:28:42.631Z,25.40
2018-01-12T20:31:10.133Z,24.73
2018-01-12T20:33:38.238Z,26.40
2018-01-12T20:36:06.507Z,26.10
2018-01-12T20:38:34.247Z,25.50
2018-01-12T20:41:01.743Z,25.67
2018-01-12T20:43:29.492Z,28.13
2018-01-12T20:45:57.537Z,27.37
2018-01-12T20:48:25.608Z,24.60
2018-01-12T20:50:53.719Z,25.57
2018-01-12T20:53:21.621Z,25.33
2018-01-12T20:55:49.527Z,26.47
2018-01-12T20:58:17.043Z,25.87
2018-01-12T21:00:45.039Z,21.80
2018-01-12T21:03:13.123Z,26.43
2018-01-12T21:05:40.648Z,22.70
2018-01-12T21:08:08.152Z,24.60
2018-01-12T21:10:35.661Z,25.97
2018-01-12T21:13:03.256Z,25.03
2018-01-12T21:15:30.779Z,22.47
2018-01-12T21:17:58.342Z,23.87
2018-01-12T21:20:26.361Z,24.97
2018-01-12T21:22:53.995Z,23.60
2018-01-12T21:25:21.518Z,25.90
2018-01-12T21:27:49.015Z,23.87
2018-01-12T21:30:16.580Z,24.80
2018-01-12T21:32:44.100Z,26.10
2018-01-12T21:35:11.603Z,24.00
2018-01-12T21:37:39.498Z,24.83
2018-01-12T21:40:07.406Z,22.00
2018-01-12T21:42:34.918Z,24.10
2018-01-12T21:45:02.608Z,25.17
2018-01-12T21:47:30.399Z,23.07
2018-01-12T21:49:57.906Z,24.80
2018-01-12T21:52:25.619Z,25.10
2018-01-12T21:54:53.751Z,25.33
2018-01-12T21:57:21.257Z,24.37
2018-01-12T21:59:48.906Z,25.40
2018-01-12T22:02:16.414Z,24.20
2018-01-12T22:04:43.923Z,24.00
2018-01-12T22:07:11.677Z,24.20
2018-01-12T22:09:39.351Z,23.90
2018-01-12T22:12:06.859Z,24.27
2018-01-12T22:14:34.363Z,23.87
2018-01-12T22:17:02.276Z,23.10
2018-01-12T22:19:29.770Z,24.30
2018-01-12T22:21:57.284Z,24.77
2018-01-12T22:24:25.006Z,36.03
2018-01-12T22:26:52.771Z,25.53
2018-01-12T22:29:20.531Z,24.00
2018-01-12T22:31:48.431Z,24.37
2018-01-12T22:34:15.944Z,23.90
2018-01-12T22:36:43.460Z,25.43
2018-01-12T22:39:10.962Z,22.33
2018-01-12T22:41:38.474Z,24.50
2018-01-12T22:44:06.699Z,25.80
2018-01-12T22:46:34.232Z,22.50
2018-01-12T22:49:01.731Z,23.90
2018-01-12T22:51:29.235Z,24.20
2018-01-12T22:53:56.989Z,23.57
2018-01-12T22:56:24.707Z,22.60
2018-01-12T22:58:52.219Z,23.67
2018-01-12T23:01:19.734Z,23.90
2018-01-12T23:03:47.387Z,24.10
2018-01-12T23:06:16.143Z,23.40
2018-01-12T23:08:43.828Z,24.93
2018-01-12T23:11:11.545Z,25.33
2018-01-12T23:13:39.967Z,23.63
2018-01-12T23:16:07.463Z,24.03
2018-01-12T23:18:34.970Z,23.50
2018-01-12T23:21:03.263Z,24.10
2018-01-12T23:23:30.775Z,23.07
2018-01-12T23:25:59.112Z,23.70
2018-01-12T23:28:26.618Z,24.57
2018-01-12T23:30:54.331Z,22.93
2018-01-12T23:33:22.779Z,22.27
2018-01-12T23:35:50.460Z,20.70
2018-01-12T23:38:17.996Z,25.13
2018-01-12T23:40:45.652Z,22.13
2018-01-12T23:43:13.156Z,20.37
2018-01-12T23:45:40.899Z,22.37
2018-01-12T23:48:09.256Z,24.00
2018-01-12T23:50:36.752Z,23.17
2018-01-12T23:53:04.372Z,23.90
2018-01-12T23:55:32.274Z,21.93
2018-01-12T23:57:59.795Z,22.17
